KLM785 TNCC-TNCM
Flight info
| Callsign | KLM785 |
|---|---|
| Flight time | 1h 6m |
| Altitude | 41000 |
| Route | ACORA1K ACORA A516 MILOK M576 DANDE |
| Aircraft | MD11/H-SDE1E2E3FGHIJ2J3J4J5M1RWXY/LB1D1 |
Departure
| Time | 2026-04-16 13:35 |
|---|---|
| Airport | Hato International Airport (TNCC) |
Arrival
| Time | 2026-04-16 14:42 |
|---|---|
| Airport | Princess Juliana International Airport (TNCM) |
| Time | Latitude | Longitude | Altitude | Speed | Heading |
|---|---|---|---|---|---|
| 2026-04-16 13:14 | 12.18546 | -68.95808 | 50 ft | 0 kts | 192° |
| 2026-04-16 13:27 | 12.18548 | -68.95808 | 50 ft | 2 kts | 192° |
| 2026-04-16 13:27 | 12.18573 | -68.95802 | 47 ft | 4 kts | 192° |
| 2026-04-16 13:27 | 12.18600 | -68.95796 | 48 ft | 4 kts | 192° |
| 2026-04-16 13:28 | 12.18626 | -68.95790 | 46 ft | 4 kts | 199° |
| 2026-04-16 13:28 | 12.18649 | -68.95778 | 44 ft | 4 kts | 225° |
| 2026-04-16 13:28 | 12.18662 | -68.95756 | 46 ft | 4 kts | 264° |
| 2026-04-16 13:28 | 12.18662 | -68.95739 | 46 ft | 0 kts | 282° |
| 2026-04-16 13:31 | 12.18664 | -68.95749 | 45 ft | 6 kts | 282° |
| 2026-04-16 13:31 | 12.18684 | -68.95849 | 48 ft | 22 kts | 282° |
| 2026-04-16 13:31 | 12.18719 | -68.96012 | 50 ft | 24 kts | 282° |
| 2026-04-16 13:32 | 12.18755 | -68.96187 | 50 ft | 26 kts | 282° |
| 2026-04-16 13:32 | 12.18794 | -68.96374 | 50 ft | 28 kts | 282° |
| 2026-04-16 13:32 | 12.18835 | -68.96569 | 49 ft | 28 kts | 282° |
| 2026-04-16 13:32 | 12.18874 | -68.96756 | 49 ft | 26 kts | 282° |
| 2026-04-16 13:33 | 12.18911 | -68.96932 | 48 ft | 25 kts | 282° |
| 2026-04-16 13:33 | 12.18946 | -68.97097 | 48 ft | 23 kts | 282° |
| 2026-04-16 13:33 | 12.18979 | -68.97256 | 47 ft | 25 kts | 282° |
| 2026-04-16 13:33 | 12.19015 | -68.97430 | 44 ft | 24 kts | 282° |
| 2026-04-16 13:34 | 12.19047 | -68.97573 | 45 ft | 7 kts | 291° |
| 2026-04-16 13:34 | 12.19064 | -68.97589 | 47 ft | 1 kts | 341° |
| 2026-04-16 13:34 | 12.19088 | -68.97584 | 47 ft | 10 kts | 10° |
| 2026-04-16 13:34 | 12.19186 | -68.97558 | 46 ft | 15 kts | 30° |
| 2026-04-16 13:35 | 12.19206 | -68.97478 | 47 ft | 17 kts | 98° |
| 2026-04-16 13:35 | 12.19158 | -68.97252 | 47 ft | 66 kts | 102° |
| 2026-04-16 13:35 | 12.18988 | -68.96455 | 50 ft | 160 kts | 102° |
| 2026-04-16 13:35 | 12.18745 | -68.95257 | 876 ft | 163 kts | 103° |
| 2026-04-16 13:36 | 12.18523 | -68.94199 | 2430 ft | 148 kts | 102° |
| 2026-04-16 13:36 | 12.18285 | -68.93065 | 3169 ft | 187 kts | 102° |
| 2026-04-16 13:36 | 12.17969 | -68.91562 | 3437 ft | 238 kts | 102° |
| 2026-04-16 13:36 | 12.17658 | -68.89866 | 4560 ft | 247 kts | 96° |
| 2026-04-16 13:37 | 12.17778 | -68.88099 | 5773 ft | 255 kts | 75° |
| 2026-04-16 13:37 | 12.18647 | -68.86500 | 6914 ft | 265 kts | 48° |
| 2026-04-16 13:37 | 12.20208 | -68.85433 | 7932 ft | 278 kts | 25° |
| 2026-04-16 13:37 | 12.22064 | -68.84776 | 8977 ft | 287 kts | 18° |
| 2026-04-16 13:38 | 12.24006 | -68.84216 | 10029 ft | 293 kts | 15° |
| 2026-04-16 13:38 | 12.25349 | -68.83840 | 10338 ft | 314 kts | 15° |
| 2026-04-16 13:38 | 12.27588 | -68.83206 | 10473 ft | 354 kts | 15° |
| 2026-04-16 13:38 | 12.30015 | -68.82504 | 11216 ft | 367 kts | 15° |
| 2026-04-16 13:39 | 12.32500 | -68.81771 | 12156 ft | 376 kts | 15° |
| 2026-04-16 13:39 | 12.35033 | -68.81016 | 13151 ft | 382 kts | 15° |
| 2026-04-16 13:39 | 12.37610 | -68.80241 | 14039 ft | 390 kts | 14° |
| 2026-04-16 13:39 | 12.40230 | -68.79450 | 14893 ft | 395 kts | 15° |
| 2026-04-16 13:40 | 12.42884 | -68.78647 | 15709 ft | 401 kts | 14° |
| 2026-04-16 13:40 | 12.45577 | -68.77831 | 16527 ft | 406 kts | 15° |
| 2026-04-16 13:40 | 12.48304 | -68.77005 | 17317 ft | 412 kts | 14° |
| 2026-04-16 13:40 | 12.51067 | -68.76167 | 18107 ft | 417 kts | 14° |
| 2026-04-16 13:41 | 12.53864 | -68.75318 | 18789 ft | 422 kts | 14° |
| 2026-04-16 13:41 | 12.56695 | -68.74459 | 19451 ft | 426 kts | 14° |
| 2026-04-16 13:41 | 12.59555 | -68.73591 | 20102 ft | 431 kts | 14° |
| 2026-04-16 13:41 | 12.62443 | -68.72715 | 20779 ft | 434 kts | 14° |
| 2026-04-16 13:42 | 12.65324 | -68.71751 | 21354 ft | 439 kts | 20° |
| 2026-04-16 13:42 | 12.67994 | -68.70202 | 22002 ft | 446 kts | 36° |
| 2026-04-16 13:42 | 12.70265 | -68.68018 | 22623 ft | 452 kts | 47° |
| 2026-04-16 13:42 | 12.72276 | -68.65521 | 23254 ft | 457 kts | 51° |
| 2026-04-16 13:43 | 12.74210 | -68.62918 | 23844 ft | 461 kts | 52° |
| 2026-04-16 13:43 | 12.76138 | -68.60324 | 24360 ft | 467 kts | 51° |
| 2026-04-16 13:43 | 12.78149 | -68.57694 | 24879 ft | 472 kts | 50° |
| 2026-04-16 13:43 | 12.80220 | -68.55059 | 25414 ft | 477 kts | 49° |
| 2026-04-16 13:44 | 12.82336 | -68.52419 | 25947 ft | 482 kts | 49° |
| 2026-04-16 13:44 | 12.84491 | -68.49760 | 26481 ft | 488 kts | 49° |
| 2026-04-16 13:44 | 12.86680 | -68.47071 | 27025 ft | 494 kts | 49° |
| 2026-04-16 13:44 | 12.88890 | -68.44357 | 27562 ft | 499 kts | 48° |
| 2026-04-16 13:45 | 12.91126 | -68.41611 | 28089 ft | 504 kts | 48° |
| 2026-04-16 13:45 | 12.93387 | -68.38830 | 28623 ft | 510 kts | 48° |
| 2026-04-16 13:45 | 12.95668 | -68.36021 | 29117 ft | 515 kts | 48° |
| 2026-04-16 13:45 | 12.97973 | -68.33180 | 29638 ft | 521 kts | 48° |
| 2026-04-16 13:46 | 13.00304 | -68.30307 | 30125 ft | 526 kts | 48° |
| 2026-04-16 13:46 | 13.02653 | -68.27409 | 30539 ft | 531 kts | 48° |
| 2026-04-16 13:46 | 13.05015 | -68.24493 | 31072 ft | 532 kts | 48° |
| 2026-04-16 13:46 | 13.07383 | -68.21568 | 31620 ft | 533 kts | 48° |
| 2026-04-16 13:47 | 13.09750 | -68.18645 | 32167 ft | 533 kts | 48° |
| 2026-04-16 13:47 | 13.12124 | -68.15712 | 32686 ft | 535 kts | 48° |
| 2026-04-16 13:47 | 13.14500 | -68.12777 | 33199 ft | 535 kts | 48° |
| 2026-04-16 13:47 | 13.16881 | -68.09833 | 33706 ft | 536 kts | 48° |
| 2026-04-16 13:48 | 13.19262 | -68.06890 | 34173 ft | 536 kts | 48° |
| 2026-04-16 13:48 | 13.21650 | -68.03935 | 34584 ft | 537 kts | 48° |
| 2026-04-16 13:48 | 13.24030 | -68.00984 | 35044 ft | 536 kts | 48° |
| 2026-04-16 13:48 | 13.26376 | -67.98074 | 35466 ft | 536 kts | 48° |
| 2026-04-16 13:49 | 13.28753 | -67.95127 | 35865 ft | 536 kts | 48° |
| 2026-04-16 13:49 | 13.31130 | -67.92182 | 36266 ft | 536 kts | 48° |
| 2026-04-16 13:49 | 13.33508 | -67.89235 | 36654 ft | 536 kts | 48° |
| 2026-04-16 13:49 | 13.35888 | -67.86286 | 37032 ft | 536 kts | 48° |
| 2026-04-16 13:50 | 13.38265 | -67.83339 | 37399 ft | 536 kts | 49° |
| 2026-04-16 13:50 | 13.40641 | -67.80393 | 37770 ft | 536 kts | 49° |
| 2026-04-16 13:50 | 13.43019 | -67.77443 | 38117 ft | 536 kts | 49° |
| 2026-04-16 13:50 | 13.45397 | -67.74493 | 38467 ft | 536 kts | 49° |
| 2026-04-16 13:51 | 13.47773 | -67.71543 | 38772 ft | 536 kts | 49° |
| 2026-04-16 13:51 | 13.50149 | -67.68592 | 39065 ft | 535 kts | 49° |
| 2026-04-16 13:51 | 13.52520 | -67.65647 | 39366 ft | 534 kts | 48° |
| 2026-04-16 13:51 | 13.54886 | -67.62706 | 39667 ft | 533 kts | 48° |
| 2026-04-16 13:52 | 13.57245 | -67.59774 | 39971 ft | 532 kts | 48° |
| 2026-04-16 13:52 | 13.59635 | -67.56879 | 40243 ft | 530 kts | 45° |
| 2026-04-16 13:52 | 13.62130 | -67.54107 | 40510 ft | 528 kts | 43° |
| 2026-04-16 13:52 | 13.64700 | -67.51407 | 40746 ft | 527 kts | 41° |
| 2026-04-16 13:53 | 13.67295 | -67.48748 | 40943 ft | 528 kts | 41° |
| 2026-04-16 13:53 | 13.72479 | -67.43451 | 40993 ft | 529 kts | 41° |
| 2026-04-16 13:54 | 13.77675 | -67.38082 | 40998 ft | 529 kts | 41° |
| 2026-04-16 13:54 | 13.82853 | -67.32695 | 41011 ft | 529 kts | 42° |
| 2026-04-16 13:55 | 13.88023 | -67.27307 | 40997 ft | 529 kts | 42° |
| 2026-04-16 13:55 | 13.93191 | -67.21920 | 41007 ft | 529 kts | 42° |
| 2026-04-16 13:56 | 13.98365 | -67.16525 | 40993 ft | 529 kts | 42° |
| 2026-04-16 13:56 | 14.03536 | -67.11130 | 40994 ft | 529 kts | 42° |
| 2026-04-16 13:57 | 14.08709 | -67.05730 | 40994 ft | 529 kts | 42° |
| 2026-04-16 13:57 | 14.13849 | -67.00360 | 41010 ft | 530 kts | 42° |
| 2026-04-16 13:58 | 14.21601 | -66.92245 | 41008 ft | 530 kts | 42° |
| 2026-04-16 13:58 | 14.26768 | -66.86828 | 41006 ft | 530 kts | 42° |
| 2026-04-16 13:59 | 14.31945 | -66.81405 | 41009 ft | 530 kts | 42° |
| 2026-04-16 13:59 | 14.37123 | -66.75978 | 41012 ft | 530 kts | 42° |
| 2026-04-16 14:00 | 14.42299 | -66.70550 | 41034 ft | 531 kts | 42° |
| 2026-04-16 14:00 | 14.47553 | -66.65199 | 41016 ft | 530 kts | 39° |
| 2026-04-16 14:01 | 14.52991 | -66.60062 | 41019 ft | 530 kts | 38° |
| 2026-04-16 14:01 | 14.58468 | -66.54966 | 41019 ft | 530 kts | 38° |
| 2026-04-16 14:02 | 14.63933 | -66.49847 | 41017 ft | 530 kts | 38° |
| 2026-04-16 14:02 | 14.69387 | -66.44713 | 41017 ft | 530 kts | 38° |
| 2026-04-16 14:03 | 14.74838 | -66.39573 | 41023 ft | 531 kts | 39° |
| 2026-04-16 14:03 | 14.80252 | -66.34466 | 41020 ft | 531 kts | 39° |
| 2026-04-16 14:04 | 14.85710 | -66.29315 | 41020 ft | 531 kts | 39° |
| 2026-04-16 14:04 | 14.91162 | -66.24166 | 41019 ft | 531 kts | 39° |
| 2026-04-16 14:05 | 14.96615 | -66.19013 | 41026 ft | 531 kts | 39° |
| 2026-04-16 14:05 | 15.02062 | -66.13861 | 41048 ft | 531 kts | 39° |
| 2026-04-16 14:06 | 15.07514 | -66.08700 | 41029 ft | 532 kts | 39° |
| 2026-04-16 14:06 | 15.12967 | -66.03525 | 41028 ft | 532 kts | 39° |
| 2026-04-16 14:07 | 15.18425 | -65.98346 | 41031 ft | 532 kts | 39° |
| 2026-04-16 14:07 | 15.23881 | -65.93169 | 41031 ft | 532 kts | 39° |
| 2026-04-16 14:08 | 15.29329 | -65.87984 | 41031 ft | 532 kts | 39° |
| 2026-04-16 14:08 | 15.34718 | -65.82698 | 41038 ft | 534 kts | 40° |
| 2026-04-16 14:09 | 15.40051 | -65.77396 | 41034 ft | 535 kts | 40° |
| 2026-04-16 14:09 | 15.45428 | -65.72053 | 41034 ft | 535 kts | 40° |
| 2026-04-16 14:10 | 15.50808 | -65.66714 | 41037 ft | 535 kts | 40° |
| 2026-04-16 14:10 | 15.56191 | -65.61373 | 41035 ft | 535 kts | 40° |
| 2026-04-16 14:11 | 15.61565 | -65.56036 | 41048 ft | 535 kts | 40° |
| 2026-04-16 14:11 | 15.66951 | -65.50684 | 41040 ft | 536 kts | 40° |
| 2026-04-16 14:12 | 15.72338 | -65.45332 | 41042 ft | 537 kts | 40° |
| 2026-04-16 14:12 | 15.77736 | -65.39979 | 41042 ft | 536 kts | 40° |
| 2026-04-16 14:13 | 15.83136 | -65.34627 | 41042 ft | 536 kts | 40° |
| 2026-04-16 14:13 | 15.88532 | -65.29274 | 41036 ft | 536 kts | 40° |
| 2026-04-16 14:14 | 15.93930 | -65.23915 | 41045 ft | 537 kts | 40° |
| 2026-04-16 14:14 | 15.99295 | -65.18583 | 41045 ft | 538 kts | 40° |
| 2026-04-16 14:15 | 16.04699 | -65.13208 | 41048 ft | 538 kts | 40° |
| 2026-04-16 14:15 | 16.10107 | -65.07825 | 41047 ft | 538 kts | 40° |
| 2026-04-16 14:16 | 16.15505 | -65.02440 | 41048 ft | 538 kts | 40° |
| 2026-04-16 14:16 | 16.20899 | -64.97057 | 41045 ft | 537 kts | 40° |
| 2026-04-16 14:17 | 16.26306 | -64.91659 | 41047 ft | 538 kts | 40° |
| 2026-04-16 14:17 | 16.31687 | -64.86280 | 41046 ft | 530 kts | 40° |
| 2026-04-16 14:18 | 16.36971 | -64.80992 | 41002 ft | 526 kts | 40° |
| 2026-04-16 14:18 | 16.39615 | -64.78349 | 40727 ft | 526 kts | 40° |
| 2026-04-16 14:18 | 16.42263 | -64.75702 | 40321 ft | 527 kts | 40° |
| 2026-04-16 14:19 | 16.44910 | -64.73054 | 39809 ft | 530 kts | 40° |
| 2026-04-16 14:19 | 16.47568 | -64.70393 | 39264 ft | 531 kts | 40° |
| 2026-04-16 14:19 | 16.50239 | -64.67717 | 38711 ft | 534 kts | 40° |
| 2026-04-16 14:19 | 16.52922 | -64.65029 | 38085 ft | 536 kts | 40° |
| 2026-04-16 14:20 | 16.55609 | -64.62334 | 37503 ft | 536 kts | 40° |
| 2026-04-16 14:20 | 16.58292 | -64.59641 | 36946 ft | 535 kts | 40° |
| 2026-04-16 14:20 | 16.60971 | -64.56950 | 36396 ft | 534 kts | 40° |
| 2026-04-16 14:20 | 16.63642 | -64.54267 | 35845 ft | 533 kts | 41° |
| 2026-04-16 14:21 | 16.66306 | -64.51591 | 35269 ft | 531 kts | 41° |
| 2026-04-16 14:21 | 16.68963 | -64.48920 | 34679 ft | 530 kts | 41° |
| 2026-04-16 14:21 | 16.71610 | -64.46259 | 34094 ft | 528 kts | 41° |
| 2026-04-16 14:21 | 16.74248 | -64.43606 | 33466 ft | 526 kts | 41° |
| 2026-04-16 14:22 | 16.76867 | -64.40971 | 32864 ft | 520 kts | 41° |
| 2026-04-16 14:22 | 16.79466 | -64.38354 | 32268 ft | 519 kts | 41° |
| 2026-04-16 14:22 | 16.82065 | -64.35738 | 31692 ft | 520 kts | 41° |
| 2026-04-16 14:22 | 16.84670 | -64.33111 | 31091 ft | 521 kts | 41° |
| 2026-04-16 14:23 | 16.87277 | -64.30478 | 30497 ft | 522 kts | 41° |
| 2026-04-16 14:23 | 16.89854 | -64.27875 | 29872 ft | 522 kts | 41° |
| 2026-04-16 14:23 | 16.92467 | -64.25237 | 29204 ft | 522 kts | 41° |
| 2026-04-16 14:23 | 16.95078 | -64.22601 | 28573 ft | 521 kts | 41° |
| 2026-04-16 14:24 | 16.97680 | -64.19973 | 27949 ft | 519 kts | 41° |
| 2026-04-16 14:24 | 17.00259 | -64.17368 | 27333 ft | 513 kts | 41° |
| 2026-04-16 14:24 | 17.02805 | -64.14794 | 26723 ft | 506 kts | 41° |
| 2026-04-16 14:24 | 17.05321 | -64.12251 | 26112 ft | 499 kts | 41° |
| 2026-04-16 14:25 | 17.07802 | -64.09742 | 25508 ft | 493 kts | 41° |
| 2026-04-16 14:25 | 17.10255 | -64.07261 | 24930 ft | 487 kts | 41° |
| 2026-04-16 14:25 | 17.12677 | -64.04811 | 24347 ft | 482 kts | 41° |
| 2026-04-16 14:25 | 17.15073 | -64.02385 | 23775 ft | 477 kts | 41° |
| 2026-04-16 14:26 | 17.17437 | -63.99982 | 23077 ft | 472 kts | 42° |
| 2026-04-16 14:26 | 17.19770 | -63.97603 | 22344 ft | 464 kts | 42° |
| 2026-04-16 14:26 | 17.22066 | -63.95258 | 21650 ft | 458 kts | 43° |
| 2026-04-16 14:26 | 17.24298 | -63.92978 | 20985 ft | 452 kts | 43° |
| 2026-04-16 14:27 | 17.26532 | -63.90696 | 20328 ft | 446 kts | 43° |
| 2026-04-16 14:27 | 17.28734 | -63.88447 | 19688 ft | 441 kts | 43° |
| 2026-04-16 14:27 | 17.30921 | -63.86213 | 19055 ft | 437 kts | 44° |
| 2026-04-16 14:27 | 17.33082 | -63.84005 | 18418 ft | 432 kts | 44° |
| 2026-04-16 14:28 | 17.35224 | -63.81816 | 17718 ft | 428 kts | 44° |
| 2026-04-16 14:28 | 17.37331 | -63.79660 | 17060 ft | 422 kts | 44° |
| 2026-04-16 14:28 | 17.39429 | -63.77514 | 16429 ft | 418 kts | 44° |
| 2026-04-16 14:28 | 17.41493 | -63.75402 | 15853 ft | 413 kts | 44° |
| 2026-04-16 14:29 | 17.42877 | -63.73986 | 15463 ft | 409 kts | 44° |
| 2026-04-16 14:29 | 17.44895 | -63.71919 | 14908 ft | 404 kts | 44° |
| 2026-04-16 14:29 | 17.46893 | -63.69872 | 14348 ft | 398 kts | 44° |
| 2026-04-16 14:29 | 17.48908 | -63.67906 | 13795 ft | 395 kts | 40° |
| 2026-04-16 14:30 | 17.51052 | -63.66149 | 13188 ft | 389 kts | 36° |
| 2026-04-16 14:30 | 17.53246 | -63.64515 | 12635 ft | 385 kts | 35° |
| 2026-04-16 14:30 | 17.55438 | -63.62933 | 12101 ft | 380 kts | 35° |
| 2026-04-16 14:30 | 17.57608 | -63.61375 | 11579 ft | 376 kts | 35° |
| 2026-04-16 14:31 | 17.59751 | -63.59829 | 11259 ft | 372 kts | 36° |
| 2026-04-16 14:31 | 17.61847 | -63.58309 | 11112 ft | 356 kts | 36° |
| 2026-04-16 14:31 | 17.63798 | -63.56889 | 10994 ft | 336 kts | 36° |
| 2026-04-16 14:31 | 17.65666 | -63.55525 | 10874 ft | 319 kts | 36° |
| 2026-04-16 14:32 | 17.67440 | -63.54227 | 10763 ft | 303 kts | 36° |
| 2026-04-16 14:32 | 17.69132 | -63.52989 | 10629 ft | 293 kts | 36° |
| 2026-04-16 14:32 | 17.70798 | -63.51767 | 10357 ft | 292 kts | 36° |
| 2026-04-16 14:32 | 17.72456 | -63.50552 | 9886 ft | 290 kts | 37° |
| 2026-04-16 14:33 | 17.74117 | -63.49333 | 9339 ft | 292 kts | 36° |
| 2026-04-16 14:33 | 17.75781 | -63.48113 | 8853 ft | 292 kts | 38° |
| 2026-04-16 14:33 | 17.77444 | -63.46892 | 8356 ft | 292 kts | 37° |
| 2026-04-16 14:33 | 17.79105 | -63.45673 | 7877 ft | 291 kts | 38° |
| 2026-04-16 14:34 | 17.80762 | -63.44457 | 7429 ft | 290 kts | 38° |
| 2026-04-16 14:34 | 17.82415 | -63.43243 | 6949 ft | 290 kts | 38° |
| 2026-04-16 14:34 | 17.84066 | -63.42030 | 6507 ft | 290 kts | 38° |
| 2026-04-16 14:34 | 17.85715 | -63.40818 | 6043 ft | 289 kts | 38° |
| 2026-04-16 14:35 | 17.87356 | -63.39612 | 5600 ft | 287 kts | 38° |
| 2026-04-16 14:35 | 17.88983 | -63.38417 | 5206 ft | 284 kts | 38° |
| 2026-04-16 14:35 | 17.90591 | -63.37236 | 4811 ft | 280 kts | 38° |
| 2026-04-16 14:35 | 17.92178 | -63.36070 | 4406 ft | 277 kts | 38° |
| 2026-04-16 14:36 | 17.93744 | -63.34919 | 4036 ft | 273 kts | 38° |
| 2026-04-16 14:36 | 17.95287 | -63.33784 | 3675 ft | 269 kts | 38° |
| 2026-04-16 14:36 | 17.96783 | -63.32687 | 3299 ft | 254 kts | 39° |
| 2026-04-16 14:36 | 17.98188 | -63.31657 | 2955 ft | 238 kts | 39° |
| 2026-04-16 14:37 | 17.99508 | -63.30688 | 2796 ft | 226 kts | 39° |
| 2026-04-16 14:37 | 18.00703 | -63.29655 | 2687 ft | 219 kts | 52° |
| 2026-04-16 14:37 | 18.01440 | -63.28310 | 2529 ft | 210 kts | 76° |
| 2026-04-16 14:37 | 18.01755 | -63.26812 | 2236 ft | 211 kts | 82° |
| 2026-04-16 14:38 | 18.01995 | -63.25283 | 1914 ft | 209 kts | 82° |
| 2026-04-16 14:38 | 18.02208 | -63.23893 | 1747 ft | 176 kts | 82° |
| 2026-04-16 14:38 | 18.02389 | -63.22690 | 1683 ft | 159 kts | 82° |
| 2026-04-16 14:38 | 18.02548 | -63.21627 | 1649 ft | 140 kts | 83° |
| 2026-04-16 14:39 | 18.02694 | -63.20641 | 1684 ft | 135 kts | 84° |
| 2026-04-16 14:39 | 18.02835 | -63.19670 | 1504 ft | 133 kts | 84° |
| 2026-04-16 14:39 | 18.02974 | -63.18712 | 1112 ft | 133 kts | 83° |
| 2026-04-16 14:39 | 18.03114 | -63.17755 | 845 ft | 134 kts | 84° |
| 2026-04-16 14:40 | 18.03281 | -63.16772 | 694 ft | 140 kts | 84° |
| 2026-04-16 14:40 | 18.03416 | -63.15747 | 566 ft | 142 kts | 85° |
| 2026-04-16 14:40 | 18.03563 | -63.14739 | 504 ft | 139 kts | 82° |
| 2026-04-16 14:40 | 18.03701 | -63.13733 | 405 ft | 139 kts | 83° |
| 2026-04-16 14:41 | 18.03840 | -63.12725 | 227 ft | 138 kts | 84° |
| 2026-04-16 14:41 | 18.03975 | -63.11732 | 38 ft | 135 kts | 82° |
| 2026-04-16 14:41 | 18.04088 | -63.10928 | 29 ft | 83 kts | 81° |
| 2026-04-16 14:41 | 18.04151 | -63.10484 | 28 ft | 51 kts | 81° |
| 2026-04-16 14:42 | 18.04200 | -63.10146 | 27 ft | 42 kts | 81° |
| 2026-04-16 14:42 | 18.04243 | -63.09944 | 27 ft | 17 kts | 56° |
| 2026-04-16 14:42 | 18.04271 | -63.09872 | 28 ft | 7 kts | 101° |
| 2026-04-16 14:42 | 18.04252 | -63.09858 | 28 ft | 2 kts | 171° |
| 2026-04-16 14:43 | 18.04240 | -63.09865 | 28 ft | 3 kts | 219° |
| 2026-04-16 14:43 | 18.04234 | -63.09907 | 27 ft | 11 kts | 263° |
| 2026-04-16 14:43 | 18.04214 | -63.10050 | 27 ft | 28 kts | 262° |
| 2026-04-16 14:43 | 18.04184 | -63.10260 | 25 ft | 29 kts | 261° |
| 2026-04-16 14:44 | 18.04154 | -63.10472 | 28 ft | 30 kts | 261° |
| 2026-04-16 14:44 | 18.04124 | -63.10684 | 29 ft | 30 kts | 261° |
| 2026-04-16 14:44 | 18.04093 | -63.10901 | 28 ft | 30 kts | 262° |
| 2026-04-16 14:44 | 18.04061 | -63.11117 | 29 ft | 27 kts | 261° |
| 2026-04-16 14:45 | 18.04047 | -63.11237 | 28 ft | 13 kts | 274° |
| 2026-04-16 14:45 | 18.04118 | -63.11293 | 28 ft | 15 kts | 350° |
| 2026-04-16 14:45 | 18.04221 | -63.11316 | 28 ft | 9 kts | 329° |
| 2026-04-16 14:45 | 18.04249 | -63.11347 | 28 ft | 4 kts | 322° |
| 2026-04-16 14:46 | 18.04280 | -63.11354 | 28 ft | 5 kts | 351° |
| 2026-04-16 14:46 | 18.04312 | -63.11359 | 28 ft | 3 kts | 351° |
| 2026-04-16 14:46 | 18.04325 | -63.11361 | 28 ft | 1 kts | 351° |
| 2026-04-16 14:46 | 18.04326 | -63.11362 | 28 ft | 0 kts | 351° |